Time;durP1;ratioP1;P1;durP2;ratioP2;P2;SDS_P1;SDS_P2;PMS_P1;PMS_P2;Temp;Humidity;BMP_temperature;BMP_pressure;BME280_temperature;BME280_humidity;BME280_pressure;Samples;Min_cycle;Max_cycle;Signal;HPM_P1;HPM_P2
2021/10/01 00:01:32;;;;;;;26.63;5.80;;;;;;;9.93;82.31;101797.72;5025096;28;20061;-61
2021/10/01 00:03:57;;;;;;;25.23;5.82;;;;;;;9.88;82.91;101795.84;5014736;28;20065;-62
2021/10/01 00:06:23;;;;;;;22.75;5.65;;;;;;;9.86;83.02;101795.81;5014330;28;20374;-62
2021/10/01 00:08:48;;;;;;;22.05;5.55;;;;;;;9.88;82.73;101799.38;5014022;28;20049;-61
2021/10/01 00:11:13;;;;;;;24.58;5.82;;;;;;;9.95;81.79;101796.00;5014351;28;20064;-61
2021/10/01 00:13:39;;;;;;;22.80;5.57;;;;;;;9.94;81.79;101788.06;5024667;28;20025;-61
2021/10/01 00:16:05;;;;;;;23.40;5.53;;;;;;;9.97;81.89;101790.75;5023000;28;20041;-62
2021/10/01 00:18:30;;;;;;;25.70;5.68;;;;;;;9.98;81.90;101789.91;5023425;28;20465;-62
2021/10/01 00:20:57;;;;;;;23.48;5.50;;;;;;;9.95;81.71;101787.19;5024999;28;20075;-62
2021/10/01 00:23:23;;;;;;;25.85;5.47;;;;;;;9.92;82.54;101779.22;5013949;28;20088;-61
2021/10/01 00:25:48;;;;;;;22.88;5.00;;;;;;;9.88;81.68;101766.78;5013948;28;20472;-61
2021/10/01 00:28:14;;;;;;;22.92;5.75;;;;;;;9.87;82.48;101767.63;5013674;28;20034;-61
2021/10/01 00:30:39;;;;;;;23.05;5.38;;;;;;;9.81;82.84;101767.50;5014361;28;20022;-62
2021/10/01 00:33:05;;;;;;;22.67;5.32;;;;;;;9.76;83.41;101773.56;5023411;28;20436;-61
2021/10/01 00:35:30;;;;;;;21.40;5.30;;;;;;;9.70;83.60;101770.81;5024472;28;20380;-62
2021/10/01 00:37:57;;;;;;;21.83;5.07;;;;;;;9.72;83.31;101762.91;5013989;28;20061;-62
2021/10/01 00:40:23;;;;;;;23.85;5.50;;;;;;;9.80;83.11;101760.44;5021686;28;20420;-61
2021/10/01 00:42:48;;;;;;;21.88;5.03;;;;;;;9.76;83.30;101763.00;5024951;28;20105;-61
2021/10/01 00:45:13;;;;;;;26.10;5.78;;;;;;;9.84;82.67;101760.53;5022682;28;20161;-60
2021/10/01 00:47:39;;;;;;;24.35;5.38;;;;;;;9.92;81.82;101758.09;5013491;28;20022;-61
2021/10/01 00:50:05;;;;;;;22.42;5.38;;;;;;;9.93;81.75;101749.28;5023027;28;20512;-62
2021/10/01 00:52:31;;;;;;;21.63;5.03;;;;;;;10.01;81.23;101755.63;5024368;28;20472;-62
2021/10/01 00:54:58;;;;;;;22.92;4.95;;;;;;;10.04;81.48;101755.69;5013602;28;20487;-62
2021/10/01 00:57:23;;;;;;;21.67;5.20;;;;;;;10.03;81.42;101755.66;5021536;28;20385;-62
2021/10/01 00:59:49;;;;;;;23.85;5.10;;;;;;;10.07;81.83;101749.59;5013509;28;20030;-60
2021/10/01 01:02:14;;;;;;;22.63;5.22;;;;;;;10.10;80.88;101742.59;5013284;28;20049;-64
2021/10/01 01:04:43;;;;;;;20.23;4.90;;;;;;;10.11;80.65;101746.16;5023533;28;20033;-64
2021/10/01 01:07:51;;;;;;;23.08;4.80;;;;;;;10.12;81.19;101735.63;5023257;28;20030;-66
2021/10/01 01:10:30;;;;;;;23.65;4.80;;;;;;;10.07;81.88;101731.97;5019576;28;20034;-69
2021/10/01 01:13:38;;;;;;;21.55;4.70;;;;;;;10.05;81.53;101738.09;5022370;28;20034;-64
2021/10/01 01:16:12;;;;;;;20.45;5.13;;;;;;;9.94;82.17;101737.88;5020332;28;20073;-66
2021/10/01 01:18:46;;;;;;;20.85;4.97;;;;;;;9.88;83.05;101730.69;5020776;28;20064;-66
2021/10/01 01:21:27;;;;;;;23.52;4.80;;;;;;;9.85;82.21;101735.91;5021402;28;20022;-65
2021/10/01 01:24:10;;;;;;;21.73;5.03;;;;;;;9.79;82.76;101729.63;5019058;28;20466;-63
2021/10/01 01:26:35;;;;;;;;;;;;;;;9.82;82.05;101735.84;5020981;28;20039;-64
2021/10/01 01:29:44;;;;;;;22.30;5.13;;;;;;;9.84;82.70;101733.25;5021590;28;19913;-64
2021/10/01 01:32:15;;;;;;;26.15;5.35;;;;;;;9.81;82.28;101728.78;4961852;28;20302;-64
2021/10/01 01:34:55;;;;;;;20.77;4.80;;;;;;;9.82;81.45;101725.28;4962774;28;20121;-64
2021/10/01 01:37:42;;;;;;;24.95;5.40;;;;;;;9.81;82.73;101706.78;4968006;28;20038;-65
2021/10/01 01:40:10;;;;;;;23.08;5.30;;;;;;;9.74;83.66;101693.44;4964521;28;20110;-65
2021/10/01 01:42:38;;;;;;;22.45;5.07;;;;;;;9.76;82.88;101704.91;4961903;28;20079;-65
2021/10/01 01:45:04;;;;;;;22.27;5.10;;;;;;;9.75;84.14;101699.63;4967512;28;20046;-66
2021/10/01 01:47:31;;;;;;;22.92;5.05;;;;;;;9.80;83.56;101699.69;4971766;28;20445;-65
2021/10/01 01:49:57;;;;;;;22.08;4.97;;;;;;;9.76;84.19;101698.75;4971685;28;20038;-65
2021/10/01 01:52:24;;;;;;;22.85;5.20;;;;;;;9.82;82.61;101704.16;4971581;28;20031;-70
2021/10/01 01:54:51;;;;;;;21.38;4.93;;;;;;;9.85;83.13;101698.06;4971724;28;20091;-69
2021/10/01 01:57:18;;;;;;;21.77;5.10;;;;;;;9.89;81.90;101692.00;4971619;28;20048;-60
2021/10/01 01:59:44;;;;;;;22.80;5.05;;;;;;;9.91;82.05;101687.63;4971524;28;20039;-60
2021/10/01 02:02:11;;;;;;;25.77;5.78;;;;;;;9.91;83.06;101698.19;4971647;28;20513;-60
2021/10/01 02:04:37;;;;;;;20.33;5.20;;;;;;;9.91;83.46;101685.84;4971409;28;20539;-60
2021/10/01 02:07:04;;;;;;;22.33;5.13;;;;;;;9.94;81.80;101678.00;5019359;28;20081;-61
2021/10/01 02:09:31;;;;;;;20.85;4.75;;;;;;;9.92;82.44;101679.72;5023801;28;20037;-60
2021/10/01 02:11:57;;;;;;;22.15;4.80;;;;;;;9.89;82.71;101669.09;5012663;28;20026;-60
2021/10/01 02:14:25;;;;;;;23.02;4.88;;;;;;;9.85;83.50;101672.53;5012611;28;20100;-60
2021/10/01 02:16:52;;;;;;;21.83;4.95;;;;;;;9.80;84.21;101683.84;5024211;28;20051;-61
2021/10/01 02:19:20;;;;;;;22.40;5.10;;;;;;;9.79;83.01;101676.81;5021034;28;20536;-61
2021/10/01 02:21:47;;;;;;;22.20;5.38;;;;;;;9.76;82.97;101678.53;5023613;28;20112;-60
2021/10/01 02:24:14;;;;;;;21.80;5.07;;;;;;;9.72;83.31;101670.50;5021825;28;20384;-61
2021/10/01 02:27:01;;;;;;;23.35;5.00;;;;;;;9.72;83.15;101665.22;5012331;28;20033;-60
2021/10/01 02:29:34;;;;;;;22.90;5.32;;;;;;;9.66;83.42;101659.81;5023768;28;20107;-61
2021/10/01 02:32:06;;;;;;;23.20;5.38;;;;;;;9.59;83.44;101664.06;5021010;28;20025;-61
2021/10/01 02:34:40;;;;;;;23.55;5.45;;;;;;;9.54;83.70;101660.47;5023230;28;20424;-62
2021/10/01 02:37:07;;;;;;;25.83;5.45;;;;;;;9.43;84.85;101645.25;5022042;28;20034;-60
2021/10/01 02:39:37;;;;;;;25.45;5.32;;;;;;;9.37;85.50;101649.53;5022850;28;20029;-60
2021/10/01 02:42:05;;;;;;;23.40;5.30;;;;;;;9.28;86.51;101650.22;5021279;28;20481;-60
2021/10/01 02:44:31;;;;;;;21.33;4.88;;;;;;;9.27;86.56;101645.78;5023475;28;20046;-60
2021/10/01 02:46:56;;;;;;;20.80;5.32;;;;;;;9.29;86.27;101649.38;5024188;28;20354;-61
2021/10/01 02:49:22;;;;;;;21.10;5.07;;;;;;;9.33;85.55;101640.63;5027610;28;20056;-60
2021/10/01 02:51:56;;;;;;;20.67;5.20;;;;;;;9.31;85.93;101637.09;5024502;28;20030;-60
2021/10/01 02:54:32;;;;;;;20.60;5.13;;;;;;;9.24;86.64;101630.75;5015835;28;20026;-60
2021/10/01 02:57:05;;;;;;;22.65;5.22;;;;;;;9.24;86.78;101628.13;5015564;28;20072;-60
2021/10/01 02:59:36;;;;;;;20.55;5.20;;;;;;;9.22;87.26;101628.97;5015818;28;20021;-62
2021/10/01 03:02:02;;;;;;;22.92;5.10;;;;;;;9.27;86.10;101624.66;5015548;28;20030;-63
2021/10/01 03:04:28;;;;;;;23.38;5.20;;;;;;;9.37;85.92;101615.22;5015877;28;20026;-65
2021/10/01 03:06:54;;;;;;;22.33;5.18;;;;;;;9.46;84.81;101620.69;5024057;28;20030;-65
2021/10/01 03:09:23;;;;;;;22.50;5.00;;;;;;;9.57;83.59;101616.53;5026624;28;20026;-61
2021/10/01 03:11:50;;;;;;;22.58;5.45;;;;;;;9.59;84.08;101606.00;5024224;28;20029;-62
2021/10/01 03:14:16;;;;;;;22.00;5.30;;;;;;;9.65;83.54;101619.31;5015443;28;20088;-61
2021/10/01 03:16:44;;;;;;;22.83;5.50;;;;;;;9.72;83.26;101622.97;5025857;28;20029;-61
2021/10/01 03:19:11;;;;;;;21.95;5.18;;;;;;;9.79;82.23;101613.44;5025464;28;20441;-64
2021/10/01 03:21:37;;;;;;;22.33;5.53;;;;;;;9.82;81.89;101606.47;5024688;28;20026;-61
2021/10/01 03:24:05;;;;;;;21.38;5.32;;;;;;;9.82;82.24;101597.66;5026057;28;20025;-60
2021/10/01 03:26:31;;;;;;;21.38;5.15;;;;;;;9.83;81.63;101589.75;5024264;28;20070;-61
2021/10/01 03:28:57;;;;;;;22.35;4.93;;;;;;;9.86;80.94;101584.53;5026593;28;20064;-64
2021/10/01 03:31:27;;;;;;;23.52;5.50;;;;;;;9.91;81.00;101584.63;5015304;28;20430;-61
2021/10/01 03:33:54;;;;;;;21.13;5.25;;;;;;;9.94;80.62;101588.19;5015086;28;20445;-60
2021/10/01 03:36:20;;;;;;;22.85;5.50;;;;;;;9.97;80.19;101582.09;5026512;28;20108;-64
2021/10/01 03:38:47;;;;;;;21.08;5.25;;;;;;;9.97;80.84;101582.09;5023701;28;20452;-60
2021/10/01 03:41:15;;;;;;;24.30;5.68;;;;;;;10.02;80.27;101579.53;5025282;28;20022;-62
2021/10/01 03:43:40;;;;;;;20.23;5.38;;;;;;;10.00;79.67;101566.28;5024186;28;20061;-64
2021/10/01 03:46:06;;;;;;;20.52;4.95;;;;;;;10.07;79.54;101569.94;5024196;28;20062;-63
2021/10/01 03:48:31;;;;;;;21.85;5.50;;;;;;;10.02;79.79;101567.22;5025675;28;20034;-63
2021/10/01 03:50:56;;;;;;;23.25;5.03;;;;;;;10.01;79.50;101559.28;5014597;28;20029;-62
2021/10/01 03:53:22;;;;;;;21.70;4.88;;;;;;;9.87;79.92;101564.28;5014515;28;20025;-65
2021/10/01 03:55:47;;;;;;;23.15;5.05;;;;;;;9.77;80.46;101550.94;5014061;28;20022;-62
2021/10/01 03:58:12;;;;;;;22.05;5.10;;;;;;;9.73;80.60;101545.56;5024232;28;20021;-59
2021/10/01 04:00:38;;;;;;;22.30;5.10;;;;;;;9.69;80.44;101539.31;5024723;28;20100;-62
2021/10/01 04:03:03;;;;;;;23.02;5.15;;;;;;;9.57;81.07;101533.81;5014630;28;20385;-62
2021/10/01 04:05:28;;;;;;;23.75;5.30;;;;;;;9.56;81.39;101521.47;5022737;28;20022;-66
2021/10/01 04:07:54;;;;;;;23.30;5.22;;;;;;;9.54;81.40;101524.09;5026324;28;20106;-65
2021/10/01 04:10:19;;;;;;;24.55;5.40;;;;;;;9.47;81.29;101522.19;5022603;28;20014;-63
2021/10/01 04:12:44;;;;;;;23.88;4.90;;;;;;;9.48;81.05;101517.78;5024862;28;20401;-69
2021/10/01 04:15:10;;;;;;;22.10;5.20;;;;;;;9.47;81.32;101514.25;5024165;28;20105;-66
2021/10/01 04:17:35;;;;;;;22.77;5.38;;;;;;;9.49;80.75;101503.72;5023449;28;20029;-65
2021/10/01 04:20:01;;;;;;;20.63;4.93;;;;;;;9.52;80.81;101509.06;5025233;28;20032;-69
2021/10/01 04:22:26;;;;;;;22.63;5.15;;;;;;;9.49;80.17;101501.97;5022417;28;20057;-65
2021/10/01 04:24:52;;;;;;;20.50;5.10;;;;;;;9.55;80.10;101503.84;5013967;28;20050;-64
2021/10/01 04:27:17;;;;;;;22.25;5.03;;;;;;;9.64;79.21;101514.59;5013663;28;20046;-68
2021/10/01 04:29:43;;;;;;;23.17;5.22;;;;;;;9.62;79.90;101503.09;5014061;28;20057;-69
2021/10/01 04:32:09;;;;;;;21.52;4.78;;;;;;;9.73;78.66;101504.19;5023682;28;20105;-69
2021/10/01 04:34:46;;;;;;;21.75;5.22;;;;;;;9.75;77.83;101497.19;5024439;28;20024;-65
2021/10/01 04:37:11;;;;;;;21.42;5.20;;;;;;;9.72;78.54;101499.78;5024390;28;20053;-69
2021/10/01 04:39:36;;;;;;;20.90;5.00;;;;;;;9.83;77.52;101505.25;5023910;28;20053;-66
2021/10/01 04:42:02;;;;;;;23.38;4.90;;;;;;;9.84;77.32;101507.00;5022676;28;20038;-69
2021/10/01 04:44:27;;;;;;;21.35;4.82;;;;;;;9.86;76.96;101497.38;5025193;28;20041;-64
2021/10/01 04:46:53;;;;;;;20.83;4.90;;;;;;;9.81;77.35;101506.09;5013598;28;20415;-69
2021/10/01 04:49:18;;;;;;;21.15;4.97;;;;;;;9.84;77.44;101495.56;5024583;28;20057;-69
2021/10/01 04:51:44;;;;;;;22.70;5.10;;;;;;;9.80;77.28;101483.19;5023250;28;20099;-66
2021/10/01 04:54:09;;;;;;;22.15;5.00;;;;;;;9.69;78.39;101486.50;5023159;28;20029;-68
2021/10/01 04:56:34;;;;;;;20.45;4.70;;;;;;;9.64;78.12;101490.84;5023885;28;20033;-69
2021/10/01 04:59:00;;;;;;;20.65;4.78;;;;;;;9.77;77.00;101478.72;5013908;28;20054;-67
2021/10/01 05:01:25;;;;;;;21.27;4.72;;;;;;;9.76;76.67;101476.97;5021800;28;20022;-66
2021/10/01 05:03:50;;;;;;;20.42;4.50;;;;;;;9.80;76.30;101478.81;5024844;28;20025;-64
2021/10/01 05:06:16;;;;;;;24.85;5.00;;;;;;;9.81;76.03;101471.75;5022264;28;20032;-67
2021/10/01 05:08:41;;;;;;;19.23;4.80;;;;;;;9.86;75.73;101478.00;5022978;28;20117;-60
2021/10/01 05:11:06;;;;;;;18.08;4.50;;;;;;;9.81;75.88;101484.97;5023664;28;20021;-62
2021/10/01 05:13:32;;;;;;;21.77;4.88;;;;;;;9.87;75.63;101479.78;5013124;28;20137;-61
2021/10/01 05:15:57;;;;;;;23.65;4.88;;;;;;;9.90;75.58;101474.56;5021469;28;20048;-62
2021/10/01 05:18:23;;;;;;;21.83;4.70;;;;;;;9.82;75.65;101466.50;5024839;28;20498;-62
2021/10/01 05:20:49;;;;;;;19.40;4.78;;;;;;;9.82;75.57;101465.63;5021926;28;20018;-62
2021/10/01 05:23:14;;;;;;;20.80;4.80;;;;;;;9.79;75.82;101471.75;5023520;28;20103;-60
2021/10/01 05:25:40;;;;;;;20.42;4.95;;;;;;;9.77;76.24;101463.78;5023124;28;20104;-65
2021/10/01 05:28:05;;;;;;;20.67;4.90;;;;;;;9.76;76.80;101466.41;5022252;28;20045;-63
2021/10/01 05:30:32;;;;;;;21.70;5.18;;;;;;;9.72;76.90;101473.38;5024409;28;20449;-63
2021/10/01 05:32:57;;;;;;;19.75;4.60;;;;;;;9.77;76.25;101473.44;5021445;28;20030;-61
2021/10/01 05:35:23;;;;;;;18.70;4.72;;;;;;;9.76;76.83;101469.94;5024509;28;20381;-65
2021/10/01 05:37:48;;;;;;;24.88;4.95;;;;;;;9.75;76.31;101477.81;5021877;28;20072;-62
2021/10/01 05:40:23;;;;;;;20.80;5.05;;;;;;;9.75;76.43;101481.34;5015294;28;20022;-60
2021/10/01 05:42:48;;;;;;;19.63;4.60;;;;;;;9.81;76.19;101470.00;5015275;28;20595;-59
2021/10/01 05:45:13;;;;;;;24.58;4.82;;;;;;;9.83;75.45;101470.03;5017763;28;20108;-59
2021/10/01 05:47:39;;;;;;;22.45;5.20;;;;;;;9.80;76.93;101477.91;5016408;28;20087;-59
2021/10/01 05:50:04;;;;;;;22.70;4.80;;;;;;;9.83;75.59;101470.94;5018068;28;20029;-59
2021/10/01 05:54:59;;;;;;;22.92;5.15;;;;;;;9.82;75.69;101471.78;5017910;28;20034;-60
2021/10/01 05:57:25;;;;;;;22.08;4.65;;;;;;;9.88;75.52;101463.97;5017155;28;20030;-60
2021/10/01 05:59:52;;;;;;;23.25;5.18;;;;;;;9.88;76.31;101471.88;5017491;28;20026;-60
2021/10/01 06:02:20;;;;;;;25.60;5.35;;;;;;;9.96;75.00;101474.69;5017051;28;20026;-61
2021/10/01 06:04:46;;;;;;;21.80;4.82;;;;;;;10.01;75.03;101475.63;5020476;28;20092;-60
2021/10/01 06:07:12;;;;;;;19.92;4.57;;;;;;;10.04;74.81;101472.16;5016267;28;20369;-60
2021/10/01 06:09:41;;;;;;;24.52;5.22;;;;;;;10.06;75.41;101479.25;5019963;28;20540;-61
2021/10/01 06:12:07;;;;;;;20.27;4.75;;;;;;;10.16;74.44;101485.56;5014310;28;20030;-60
2021/10/01 06:14:33;;;;;;;21.80;4.78;;;;;;;10.13;75.98;101477.56;5018554;28;20034;-60
2021/10/01 06:16:58;;;;;;;21.73;4.93;;;;;;;10.19;74.76;101479.44;5016545;28;20454;-60
2021/10/01 06:19:24;;;;;;;23.25;5.20;;;;;;;10.23;73.85;101478.63;5017248;28;20057;-61
2021/10/01 06:21:52;;;;;;;22.27;5.10;;;;;;;10.22;74.85;101475.09;5022228;28;20030;-60
2021/10/01 06:24:18;;;;;;;21.65;4.78;;;;;;;10.28;73.55;101482.22;5021433;28;20026;-60
2021/10/01 06:26:44;;;;;;;25.70;5.10;;;;;;;10.23;74.97;101478.63;5020179;28;20384;-60
2021/10/01 06:29:09;;;;;;;20.27;4.55;;;;;;;10.27;73.85;101480.47;5022923;28;20021;-60
2021/10/01 06:31:34;;;;;;;21.10;4.60;;;;;;;10.25;74.61;101483.06;5022012;28;20029;-61
2021/10/01 06:34:00;;;;;;;23.40;4.88;;;;;;;10.24;75.54;101477.78;5021863;28;20084;-60
2021/10/01 06:36:25;;;;;;;21.55;4.57;;;;;;;10.31;74.21;101482.28;5021286;28;20034;-60
2021/10/01 06:38:51;;;;;;;21.23;4.93;;;;;;;10.34;74.68;101477.06;5023389;28;20033;-61
2021/10/01 06:41:17;;;;;;;21.80;4.70;;;;;;;10.37;74.43;101481.50;5023220;28;20440;-60
2021/10/01 06:43:44;;;;;;;21.20;5.05;;;;;;;10.35;73.91;101478.84;5021606;28;20042;-60
2021/10/01 06:46:22;;;;;;;21.92;4.55;;;;;;;10.38;73.97;101484.19;5021970;28;20065;-62
2021/10/01 07:23:46;;;;;;;19.98;4.53;;;;;;;11.09;72.89;101447.22;4996648;28;20145;-60
2021/10/01 08:20:20;;;;;;;18.75;3.90;;;;;;;13.11;66.47;101451.44;5018701;28;20045;-61
2021/10/01 08:22:47;;;;;;;21.02;4.47;;;;;;;13.24;65.74;101460.34;5021525;28;20410;-60
2021/10/01 08:25:12;;;;;;;20.27;4.63;;;;;;;13.39;67.66;101443.59;5022269;28;20029;-61
2021/10/01 08:27:37;;;;;;;19.38;4.07;;;;;;;13.58;65.19;101445.38;5022916;28;20511;-60
2021/10/01 08:30:05;;;;;;;19.23;4.05;;;;;;;13.73;65.35;101451.63;5022399;28;20381;-61
2021/10/01 08:32:31;;;;;;;24.02;4.60;;;;;;;13.75;64.95;101444.53;5024627;28;20025;-62
2021/10/01 08:34:56;;;;;;;23.55;4.47;;;;;;;13.75;64.97;101441.88;5024036;28;20097;-60
2021/10/01 08:37:21;;;;;;;22.27;4.60;;;;;;;13.92;65.16;101434.81;5023806;28;20045;-62
2021/10/01 08:39:47;;;;;;;21.33;4.38;;;;;;;14.21;64.44;101433.91;5023989;28;20547;-61
2021/10/01 08:42:13;;;;;;;20.42;4.18;;;;;;;14.31;62.64;101432.09;5019650;28;20088;-60
2021/10/01 08:44:38;;;;;;;20.77;4.53;;;;;;;14.24;64.19;101433.91;5025207;28;20132;-62
2021/10/01 08:47:05;;;;;;;22.90;4.50;;;;;;;14.23;63.20;101441.88;5021339;28;20117;-62
2021/10/01 08:49:32;;;;;;;22.33;4.35;;;;;;;13.95;66.61;101424.16;5022659;28;20026;-61
2021/10/01 08:51:57;;;;;;;19.23;4.22;;;;;;;13.56;67.45;101428.59;5024293;28;20033;-62
2021/10/01 08:54:25;;;;;;;21.70;4.70;;;;;;;13.04;75.27;101439.91;5020996;28;20026;-61
2021/10/01 08:56:51;;;;;;;24.48;5.00;;;;;;;12.45;79.62;101435.22;5022419;28;20026;-62
2021/10/01 08:59:16;;;;;;;21.75;4.70;;;;;;;12.06;86.59;101437.63;5019094;28;20389;-60
2021/10/01 09:01:42;;;;;;;21.63;4.40;;;;;;;11.99;86.97;101430.50;5021427;28;20453;-62
2021/10/01 09:04:09;;;;;;;23.02;5.10;;;;;;;11.91;84.85;101418.91;5022475;28;20045;-62
2021/10/01 09:06:35;;;;;;;23.60;5.03;;;;;;;12.02;84.16;101427.88;5020218;28;20061;-61
2021/10/01 09:09:05;;;;;;;21.88;4.82;;;;;;;12.10;88.45;101415.56;5019880;28;20061;-61
2021/10/01 09:11:33;;;;;;;23.48;4.72;;;;;;;12.34;79.14;101422.78;5014268;28;20535;-61
2021/10/01 09:14:05;;;;;;;24.27;5.05;;;;;;;12.80;78.30;101430.13;5018680;28;20034;-62
2021/10/01 09:16:31;;;;;;;21.38;4.60;;;;;;;13.26;74.47;101413.44;5014683;28;20489;-60
2021/10/01 09:18:57;;;;;;;19.73;4.30;;;;;;;13.56;72.05;101410.00;5019430;28;20061;-62
2021/10/01 09:21:23;;;;;;;20.75;4.35;;;;;;;13.75;70.24;101416.19;5021368;28;20030;-61
2021/10/01 09:24:00;;;;;;;19.60;4.10;;;;;;;13.84;68.48;101404.69;5017802;28;20030;-61
2021/10/01 09:26:27;;;;;;;22.35;4.15;;;;;;;13.94;67.94;101413.53;5018829;28;20069;-61
2021/10/01 09:28:59;;;;;;;16.30;4.00;;;;;;;14.06;66.82;101402.00;5015915;28;20030;-61
2021/10/01 09:31:34;;;;;;;20.20;4.53;;;;;;;14.34;66.79;101416.13;5018659;28;20026;-61
2021/10/01 09:34:01;;;;;;;22.35;4.70;;;;;;;14.48;66.56;101408.13;5019697;28;20033;-60
2021/10/01 09:36:27;;;;;;;20.30;4.28;;;;;;;14.61;65.54;101396.59;5019902;28;20026;-62
2021/10/01 09:38:54;;;;;;;23.88;4.30;;;;;;;14.75;64.73;101399.22;5015527;28;20037;-61
2021/10/01 09:41:25;;;;;;;23.50;4.53;;;;;;;14.92;65.51;101390.25;5017978;28;20076;-62
2021/10/01 09:44:13;;;;;;;21.55;4.45;;;;;;;15.07;63.54;101387.53;5019955;28;20102;-61
2021/10/01 09:46:44;;;;;;;21.92;4.13;;;;;;;15.16;62.75;101397.22;5014862;28;20388;-60
2021/10/01 09:49:14;;;;;;;19.85;4.43;;;;;;;15.17;61.67;101391.00;5016097;28;20465;-63
2021/10/01 09:51:45;;;;;;;23.92;4.40;;;;;;;15.21;61.08;101384.75;5017647;28;20060;-60
2021/10/01 09:54:13;;;;;;;20.67;4.20;;;;;;;15.19;59.80;101389.22;5016128;28;20041;-61
2021/10/01 09:56:40;;;;;;;21.40;4.72;;;;;;;15.48;61.01;101380.16;5022633;28;20047;-61
2021/10/01 09:59:14;;;;;;;20.20;4.00;;;;;;;15.58;59.68;101375.63;5018979;28;20044;-60
2021/10/01 10:02:04;;;;;;;22.13;4.20;;;;;;;15.37;60.43;101374.88;5024539;28;20057;-62
2021/10/01 10:04:40;;;;;;;22.45;4.45;;;;;;;15.06;63.65;101376.88;5023360;28;20025;-61
2021/10/01 10:07:26;;;;;;;22.58;4.45;;;;;;;14.16;68.28;101378.97;5023117;28;20034;-62
2021/10/01 10:10:12;;;;;;;23.05;4.45;;;;;;;13.88;68.81;101371.91;5024141;28;20020;-63
2021/10/01 10:12:41;;;;;;;21.38;4.25;;;;;;;14.18;66.44;101364.75;5023863;28;20491;-62
2021/10/01 10:15:12;;;;;;;24.52;4.03;;;;;;;14.37;64.58;101376.25;5025040;28;20025;-62
2021/10/01 10:17:53;;;;;;;21.95;4.45;;;;;;;14.52;65.02;101372.66;5024500;28;20029;-62
2021/10/01 10:20:19;;;;;;;22.80;4.60;;;;;;;14.67;63.65;101368.19;5026467;28;20026;-61
2021/10/01 10:22:46;;;;;;;22.73;4.20;;;;;;;14.82;63.43;101368.13;5027641;28;20492;-61
2021/10/01 10:25:11;;;;;;;19.75;3.80;;;;;;;15.02;62.89;101368.00;5024121;28;20091;-61
2021/10/01 10:27:37;;;;;;;21.25;4.50;;;;;;;15.26;61.78;101359.00;5028280;28;20029;-62
2021/10/01 10:30:07;;;;;;;24.90;4.30;;;;;;;15.51;60.18;101365.00;5020234;28;20118;-62
2021/10/01 10:32:33;;;;;;;20.00;4.18;;;;;;;15.80;59.49;101355.03;5024849;28;20075;-61
2021/10/01 10:35:01;;;;;;;20.88;4.32;;;;;;;15.94;58.63;101353.13;5026437;28;20025;-63
2021/10/01 10:37:47;;;;;;;22.25;4.40;;;;;;;16.16;58.40;101352.91;5025012;28;20030;-61
2021/10/01 10:40:13;;;;;;;19.50;4.20;;;;;;;16.62;56.58;101349.69;5022164;28;20028;-62
2021/10/01 10:42:46;;;;;;;20.08;4.00;;;;;;;16.79;54.97;101335.22;5027140;28;20108;-63
2021/10/01 10:45:14;;;;;;;22.17;4.03;;;;;;;16.59;55.57;101356.88;5021888;28;20476;-62
2021/10/01 10:47:44;;;;;;;21.20;3.90;;;;;;;16.73;54.62;101345.09;5023706;28;20029;-62
2021/10/01 10:50:21;;;;;;;20.05;4.05;;;;;;;16.89;54.89;101358.25;5021961;28;20026;-63
2021/10/01 10:53:15;;;;;;;21.42;4.10;;;;;;;16.94;54.37;101336.88;5024536;28;20480;-62
2021/10/01 10:55:45;;;;;;;19.35;3.80;;;;;;;16.90;53.48;101341.34;5019233;28;20599;-62
2021/10/01 10:58:26;;;;;;;18.08;3.83;;;;;;;17.07;53.73;101320.63;5024029;28;20033;-62
2021/10/01 11:01:01;;;;;;;22.13;4.00;;;;;;;17.02;53.56;101333.19;5022398;28;20564;-63
2021/10/01 11:03:33;;;;;;;21.27;4.15;;;;;;;16.97;53.45;101315.44;5023932;28;20120;-60
2021/10/01 11:06:14;;;;;;;19.30;3.88;;;;;;;17.18;53.85;101330.25;5019186;28;20028;-61
2021/10/01 11:08:50;;;;;;;19.48;3.78;;;;;;;17.59;51.51;101323.34;5024982;28;20041;-61
2021/10/01 11:11:28;;;;;;;21.48;3.85;;;;;;;17.47;52.37;101320.91;5020333;28;20396;-60
2021/10/01 11:14:15;;;;;;;21.90;4.00;;;;;;;17.16;54.82;101310.72;5020037;28;20060;-61
2021/10/01 11:17:05;;;;;;;20.50;3.70;;;;;;;16.96;53.02;101305.66;5023396;28;20017;-61
2021/10/01 11:19:38;;;;;;;19.92;3.67;;;;;;;16.85;53.68;101300.47;4956988;28;20466;-60
2021/10/01 11:22:22;;;;;;;19.42;3.88;;;;;;;16.83;54.82;101291.56;4955675;28;20047;-60
2021/10/01 11:24:47;;;;;;;22.17;4.22;;;;;;;16.87;54.20;101309.31;4953995;28;20043;-61
2021/10/01 11:27:13;;;;;;;23.45;4.20;;;;;;;16.92;55.54;101302.19;4954230;28;20438;-60
2021/10/01 11:29:38;;;;;;;22.13;4.20;;;;;;;17.02;54.28;101308.25;4957273;28;20114;-60
2021/10/01 11:32:08;;;;;;;19.90;4.25;;;;;;;17.12;52.99;101292.97;4958387;28;20058;-61
2021/10/01 11:34:42;;;;;;;21.00;4.25;;;;;;;17.20;53.78;101302.63;4940840;28;20023;-62
2021/10/01 11:37:27;;;;;;;20.45;4.03;;;;;;;17.46;52.55;101301.31;4957243;28;20380;-60
2021/10/01 11:40:05;;;;;;;19.55;3.75;;;;;;;17.63;50.63;101303.69;4954617;28;20047;-60
2021/10/01 11:42:38;;;;;;;21.58;4.00;;;;;;;17.96;51.30;101308.50;4956987;28;20027;-61
2021/10/01 11:45:14;;;;;;;;;;;;;;;18.21;50.38;101330.28;4940953;29;20044;-62
2021/10/01 11:48:02;;;;;;;20.88;3.83;;;;;;;18.07;49.43;101303.78;4957400;28;20401;-60
2021/10/01 11:50:32;;;;;;;20.52;3.60;;;;;;;18.00;48.25;101310.16;4955070;28;20417;-61
2021/10/01 11:52:58;;;;;;;21.20;4.20;;;;;;;17.97;48.82;101300.44;4957834;28;20027;-60
2021/10/01 11:55:28;;;;;;;20.42;3.80;;;;;;;17.91;48.42;101311.22;4956599;28;20398;-59
2021/10/01 11:57:54;;;;;;;24.17;4.38;;;;;;;17.69;49.36;101302.69;5018689;28;20022;-60
2021/10/01 12:00:22;;;;;;;23.38;4.28;;;;;;;17.49;49.78;101282.56;5017475;28;20060;-60
2021/10/01 12:02:50;;;;;;;19.42;4.20;;;;;;;17.39;49.92;101281.81;5021898;28;20029;-60
2021/10/01 12:05:19;;;;;;;21.60;4.25;;;;;;;17.37;51.39;101278.31;5025095;28;20021;-61
2021/10/01 12:07:46;;;;;;;21.00;3.90;;;;;;;17.49;50.73;101276.31;5026322;28;20036;-61
2021/10/01 12:10:11;;;;;;;20.77;3.90;;;;;;;17.73;52.02;101281.22;5026812;28;20477;-62
2021/10/01 12:12:37;;;;;;;20.00;4.15;;;;;;;18.02;50.94;101274.47;5025001;28;20040;-62
2021/10/01 12:15:02;;;;;;;21.05;4.38;;;;;;;18.44;49.02;101274.50;5023294;28;20052;-60
2021/10/01 12:17:37;;;;;;;21.27;4.20;;;;;;;18.68;48.67;101266.81;5024548;28;20346;-60
2021/10/01 12:20:03;;;;;;;20.75;4.40;;;;;;;18.41;47.90;101268.34;5023956;28;20410;-61
2021/10/01 12:22:32;;;;;;;21.98;4.10;;;;;;;18.10;49.11;101269.84;5024468;28;20112;-60
2021/10/01 12:24:57;;;;;;;22.08;3.97;;;;;;;18.12;50.78;101272.50;5025330;28;20032;-60
2021/10/01 12:27:44;;;;;;;18.40;4.15;;;;;;;18.14;48.30;101288.50;5025113;28;20368;-63
2021/10/01 12:30:10;;;;;;;20.85;3.97;;;;;;;17.73;48.17;101264.31;5023898;28;20104;-63
2021/10/01 12:32:36;;;;;;;20.92;4.10;;;;;;;17.50;49.75;101272.72;5026413;28;20034;-61
2021/10/01 12:35:05;;;;;;;20.67;3.90;;;;;;;17.48;49.31;101263.88;5025958;28;20113;-63
2021/10/01 12:37:40;;;;;;;18.90;4.05;;;;;;;17.49;50.37;101270.97;5022566;28;20018;-60
2021/10/01 12:40:07;;;;;;;21.02;4.20;;;;;;;17.35;50.42;101258.72;5021219;28;20022;-61
2021/10/01 12:42:35;;;;;;;20.80;4.15;;;;;;;17.20;50.52;101253.66;5024242;28;20038;-61
2021/10/01 12:45:03;;;;;;;21.13;3.95;;;;;;;17.28;50.19;101283.78;5024093;28;20041;-62
2021/10/01 12:47:34;;;;;;;21.00;4.20;;;;;;;17.21;51.15;101255.41;5022614;28;20064;-61
2021/10/01 12:50:01;;;;;;;20.92;4.15;;;;;;;17.20;51.25;101257.22;5020692;28;20076;-60
2021/10/01 12:52:28;;;;;;;20.27;4.20;;;;;;;17.18;51.72;101252.78;5024010;28;20021;-60
2021/10/01 12:54:58;;;;;;;20.38;4.03;;;;;;;17.20;51.97;101256.34;5023764;28;20056;-59
2021/10/01 12:57:28;;;;;;;23.17;4.65;;;;;;;17.23;50.84;101251.81;5022198;28;20033;-60
2021/10/01 12:59:55;;;;;;;21.50;4.20;;;;;;;17.21;52.19;101250.06;5019619;28;20108;-59
2021/10/01 13:02:24;;;;;;;21.42;4.10;;;;;;;17.19;51.44;101242.06;5003078;28;20037;-59